Adrian, MI (49221)

2:50 AM EST on December 09, 2016 (GMT -0500)
Siena Heights University | | Change Station

Elev 797 ft 41.91 °N, 84.02 °W | Updated 3 seconds ago

Light Snow
Light Snow Mist
24.4 °F
Feels Like 17 °F
N
6.0
Wind Variable Wind from West
Gusts 10.0 mph

Today
High -- | Low -- °F
--% Chance of Precip.
Yesterday
High -- | Low -- °F
Precip. -- in
Pressure 30.35 in
Visibility 4.0 miles
Clouds Mostly Cloudy 3600 ft
Overcast 4700 ft
Windchill 17 °F
Dew Point 21 °F
Humidity 88%
Rainfall 0.00 in
Snow Depth Not available.
7:52 AM 5:04 PM
Waxing Gibbous, 71% visible
METAR KADG 090653Z AUTO 27010KT 4SM -SN BR BKN036 OVC047 M05/M07 A3030 RMK AO2 SNB04 SLP275 P0000 T10501067
Pressure 30.35 in
Visibility 4.0 miles
Clouds Mostly Cloudy 3600 ft
Overcast 4700 ft
Windchill 17 °F
Dew Point 21 °F
Humidity 88%
Rainfall 0.00 in
Snow Depth Not available.
7:52 AM 5:04 PM
Waxing Gibbous, 71% visible
METAR KADG 090653Z AUTO 27010KT 4SM -SN BR BKN036 OVC047 M05/M07 A3030 RMK AO2 SNB04 SLP275 P0000 T10501067

10-Day Weather Forecast

Almanac

Astronomy

Dec. 09, 2016 Rise Set
Actual Time
Civil Twilight
Nautical Twilight
Astronomical Twilight
Moon
Length of Visible Light
Length of Day
Tomorrow will be .
, % of the Moon is Illuminated

Today's Extremes

State Highs State Lows

Community

WunderPhotos

Upload Photos

1,956,374 photos uploaded!

WunderBlog® & News

Nearby

Air Quality

  Air Quality AQ Index Pollutant
Not available.

Snow Depth

Station Depth Elevation

Earthquake Activity

City Distance Mag. Time & Date
Minimum magnitude displayed is 2.5.

Coastal Water Temperatures

Place Temperature

Stations

Nearby Weather Stations

Station Location Temp. Windchill Dew Point Humidity Wind Precip. Elev Updated Type
                   

Watches & Warnings

There are currently no watches in effect.